sensor_id;sensor_type;location;lat;lon;timestamp;pressure;altitude;pressure_sealevel;temperature;humidity
11856;BME280;5987;53.140;8.904;2023-03-26T00:02:32;100373.13;;;6.37;100.00
11856;BME280;5987;53.140;8.904;2023-03-26T00:05:36;100378.44;;;6.33;100.00
11856;BME280;5987;53.140;8.904;2023-03-26T00:08:44;100387.47;;;6.22;100.00
11856;BME280;5987;53.140;8.904;2023-03-26T00:11:47;100391.94;;;6.16;100.00
11856;BME280;5987;53.140;8.904;2023-03-26T00:14:51;100391.03;;;6.16;100.00
11856;BME280;5987;53.140;8.904;2023-03-26T00:17:55;100382.63;;;6.06;100.00
11856;BME280;5987;53.140;8.904;2023-03-26T00:21:01;100400.00;;;6.06;100.00
11856;BME280;5987;53.140;8.904;2023-03-26T00:24:10;100406.09;;;6.05;100.00
11856;BME280;5987;53.140;8.904;2023-03-26T00:27:16;100395.63;;;6.08;100.00
11856;BME280;5987;53.140;8.904;2023-03-26T00:30:19;100408.72;;;6.05;100.00
11856;BME280;5987;53.140;8.904;2023-03-26T00:33:23;100410.44;;;6.06;100.00
11856;BME280;5987;53.140;8.904;2023-03-26T00:36:27;100427.88;;;6.04;100.00
11856;BME280;5987;53.140;8.904;2023-03-26T00:39:33;100421.81;;;6.01;100.00
11856;BME280;5987;53.140;8.904;2023-03-26T00:42:38;100425.41;;;5.96;100.00
11856;BME280;5987;53.140;8.904;2023-03-26T00:45:45;100419.31;;;5.98;100.00
11856;BME280;5987;53.140;8.904;2023-03-26T00:48:49;100429.84;;;5.92;100.00
11856;BME280;5987;53.140;8.904;2023-03-26T00:51:52;100418.47;;;5.95;100.00
11856;BME280;5987;53.140;8.904;2023-03-26T00:54:57;100429.78;;;5.95;100.00
11856;BME280;5987;53.140;8.904;2023-03-26T00:58:01;100427.22;;;5.94;100.00
11856;BME280;5987;53.140;8.904;2023-03-26T01:01:08;100428.88;;;5.98;100.00
11856;BME280;5987;53.140;8.904;2023-03-26T01:04:26;100428.00;;;5.96;100.00
11856;BME280;5987;53.140;8.904;2023-03-26T01:07:32;100427.28;;;5.91;100.00
11856;BME280;5987;53.140;8.904;2023-03-26T01:10:38;100433.38;;;5.90;100.00
11856;BME280;5987;53.140;8.904;2023-03-26T01:13:46;100430.56;;;5.99;100.00
11856;BME280;5987;53.140;8.904;2023-03-26T01:16:53;100431.41;;;6.01;100.00
11856;BME280;5987;53.140;8.904;2023-03-26T01:20:07;100427.06;;;6.00;100.00
11856;BME280;5987;53.140;8.904;2023-03-26T01:23:22;100429.78;;;5.95;100.00
11856;BME280;5987;53.140;8.904;2023-03-26T01:26:51;100435.78;;;5.99;100.00
11856;BME280;5987;53.140;8.904;2023-03-26T01:30:06;100435.06;;;5.92;100.00
11856;BME280;5987;53.140;8.904;2023-03-26T01:33:19;100429.97;;;5.86;100.00
11856;BME280;5987;53.140;8.904;2023-03-26T01:36:38;100434.31;;;5.87;100.00
11856;BME280;5987;53.140;8.904;2023-03-26T01:39:49;100427.50;;;5.81;100.00
11856;BME280;5987;53.140;8.904;2023-03-26T01:43:05;100439.72;;;5.78;100.00
11856;BME280;5987;53.140;8.904;2023-03-26T01:46:13;100430.06;;;5.83;100.00
11856;BME280;5987;53.140;8.904;2023-03-26T01:49:18;100435.28;;;5.83;100.00
11856;BME280;5987;53.140;8.904;2023-03-26T01:52:22;100424.03;;;5.81;100.00
11856;BME280;5987;53.140;8.904;2023-03-26T01:55:35;100429.97;;;5.86;100.00
11856;BME280;5987;53.140;8.904;2023-03-26T01:59:02;100433.38;;;5.90;100.00
11856;BME280;5987;53.140;8.904;2023-03-26T02:02:12;100427.28;;;5.89;100.00
11856;BME280;5987;53.140;8.904;2023-03-26T02:05:22;100428.97;;;5.92;100.00
11856;BME280;5987;53.140;8.904;2023-03-26T02:08:34;100428.84;;;5.99;100.00
11856;BME280;5987;53.140;8.904;2023-03-26T02:11:40;100428.09;;;5.93;100.00
11856;BME280;5987;53.140;8.904;2023-03-26T02:14:47;100428.00;;;5.97;100.00
11856;BME280;5987;53.140;8.904;2023-03-26T02:17:51;100433.16;;;6.00;100.00
11856;BME280;5987;53.140;8.904;2023-03-26T02:20:54;100421.88;;;6.00;100.00
11856;BME280;5987;53.140;8.904;2023-03-26T02:23:58;100433.31;;;5.93;100.00
11856;BME280;5987;53.140;8.904;2023-03-26T02:27:05;100431.53;;;5.93;100.00
11856;BME280;5987;53.140;8.904;2023-03-26T02:30:14;100423.69;;;5.95;100.00
11856;BME280;5987;53.140;8.904;2023-03-26T02:33:18;100416.00;;;5.90;100.00
11856;BME280;5987;53.140;8.904;2023-03-26T02:36:23;100409.00;;;5.92;100.00
11856;BME280;5987;53.140;8.904;2023-03-26T02:39:28;100402.78;;;5.99;100.00
11856;BME280;5987;53.140;8.904;2023-03-26T02:42:32;100402.81;;;5.98;100.00
11856;BME280;5987;53.140;8.904;2023-03-26T02:45:37;100410.59;;;5.99;100.00
11856;BME280;5987;53.140;8.904;2023-03-26T02:48:42;100404.56;;;5.97;100.00
11856;BME280;5987;53.140;8.904;2023-03-26T02:51:45;100395.06;;;5.93;100.00
11856;BME280;5987;53.140;8.904;2023-03-26T02:54:49;100401.06;;;5.97;100.00
11856;BME280;5987;53.140;8.904;2023-03-26T02:57:53;100394.97;;;5.99;100.00
11856;BME280;5987;53.140;8.904;2023-03-26T03:00:59;100396.88;;;5.91;100.00
11856;BME280;5987;53.140;8.904;2023-03-26T03:04:04;100397.91;;;5.84;100.00
11856;BME280;5987;53.140;8.904;2023-03-26T03:07:09;100389.31;;;5.80;100.00
11856;BME280;5987;53.140;8.904;2023-03-26T03:10:15;100382.38;;;5.79;100.00
11856;BME280;5987;53.140;8.904;2023-03-26T03:13:23;100389.22;;;5.83;100.00
11856;BME280;5987;53.140;8.904;2023-03-26T03:16:28;100393.72;;;5.78;100.00
11856;BME280;5987;53.140;8.904;2023-03-26T03:19:31;100397.22;;;5.76;100.00
11856;BME280;5987;53.140;8.904;2023-03-26T03:22:35;100392.78;;;5.79;100.00
11856;BME280;5987;53.140;8.904;2023-03-26T03:25:39;100394.66;;;5.74;100.00
11856;BME280;5987;53.140;8.904;2023-03-26T03:28:43;100395.47;;;5.76;100.00
11856;BME280;5987;53.140;8.904;2023-03-26T03:31:48;100404.28;;;5.71;100.00
11856;BME280;5987;53.140;8.904;2023-03-26T03:34:52;100397.31;;;5.73;100.00
11856;BME280;5987;53.140;8.904;2023-03-26T03:37:56;100397.19;;;5.77;100.00
11856;BME280;5987;53.140;8.904;2023-03-26T03:41:00;100389.59;;;5.68;100.00
11856;BME280;5987;53.140;8.904;2023-03-26T03:44:04;100397.44;;;5.66;100.00
11856;BME280;5987;53.140;8.904;2023-03-26T03:47:09;100397.53;;;5.63;100.00
11856;BME280;5987;53.140;8.904;2023-03-26T03:50:14;100398.41;;;5.62;100.00
11856;BME280;5987;53.140;8.904;2023-03-26T03:53:19;100392.31;;;5.63;100.00
11856;BME280;5987;53.140;8.904;2023-03-26T03:56:22;100395.63;;;5.70;100.00
11856;BME280;5987;53.140;8.904;2023-03-26T03:59:27;100398.28;;;5.69;100.00
11856;BME280;5987;53.140;8.904;2023-03-26T04:02:32;100398.31;;;5.67;100.00
11856;BME280;5987;53.140;8.904;2023-03-26T04:05:37;100410.50;;;5.65;100.00
11856;BME280;5987;53.140;8.904;2023-03-26T04:08:41;100413.16;;;5.63;100.00
11856;BME280;5987;53.140;8.904;2023-03-26T04:11:45;100404.44;;;5.64;100.00
11856;BME280;5987;53.140;8.904;2023-03-26T04:14:48;100407.06;;;5.64;100.00
11856;BME280;5987;53.140;8.904;2023-03-26T04:17:53;100401.00;;;5.62;100.00
11856;BME280;5987;53.140;8.904;2023-03-26T04:20:57;100396.75;;;5.58;100.00
11856;BME280;5987;53.140;8.904;2023-03-26T04:24:04;100393.22;;;5.61;100.00
11856;BME280;5987;53.140;8.904;2023-03-26T04:27:12;100389.81;;;5.59;100.00
11856;BME280;5987;53.140;8.904;2023-03-26T04:30:19;100388.25;;;5.52;100.00
11856;BME280;5987;53.140;8.904;2023-03-26T04:33:24;100395.28;;;5.48;100.00
11856;BME280;5987;53.140;8.904;2023-03-26T04:36:29;100396.31;;;5.41;100.00
11856;BME280;5987;53.140;8.904;2023-03-26T04:39:35;100390.13;;;5.45;100.00
11856;BME280;5987;53.140;8.904;2023-03-26T04:42:40;100398.22;;;5.32;100.00
11856;BME280;5987;53.140;8.904;2023-03-26T04:45:47;100396.56;;;5.28;100.00
11856;BME280;5987;53.140;8.904;2023-03-26T04:48:53;100393.16;;;5.26;100.00
11856;BME280;5987;53.140;8.904;2023-03-26T04:51:57;100386.38;;;5.19;100.00
11856;BME280;5987;53.140;8.904;2023-03-26T04:55:01;100394.31;;;5.13;100.00
11856;BME280;5987;53.140;8.904;2023-03-26T04:58:05;100395.31;;;5.06;100.00
11856;BME280;5987;53.140;8.904;2023-03-26T05:01:09;100391.22;;;4.95;100.00
11856;BME280;5987;53.140;8.904;2023-03-26T05:04:14;100399.06;;;4.94;100.00
11856;BME280;5987;53.140;8.904;2023-03-26T05:07:20;100396.50;;;4.92;100.00
11856;BME280;5987;53.140;8.904;2023-03-26T05:10:25;100393.25;;;4.79;100.00
11856;BME280;5987;53.140;8.904;2023-03-26T05:13:29;100392.28;;;4.87;100.00
11856;BME280;5987;53.140;8.904;2023-03-26T05:16:33;100397.41;;;4.90;100.00
11856;BME280;5987;53.140;8.904;2023-03-26T05:19:40;100401.66;;;4.94;100.00
11856;BME280;5987;53.140;8.904;2023-03-26T05:22:44;100394.09;;;4.81;100.00
11856;BME280;5987;53.140;8.904;2023-03-26T05:25:47;100390.38;;;4.93;100.00
11856;BME280;5987;53.140;8.904;2023-03-26T05:28:51;100396.38;;;4.97;100.00
11856;BME280;5987;53.140;8.904;2023-03-26T05:31:55;100385.00;;;5.03;100.00
11856;BME280;5987;53.140;8.904;2023-03-26T05:35:00;100384.88;;;5.07;100.00
11856;BME280;5987;53.140;8.904;2023-03-26T05:38:05;100387.41;;;5.10;100.00
11856;BME280;5987;53.140;8.904;2023-03-26T05:41:09;100386.41;;;5.16;100.00
11856;BME280;5987;53.140;8.904;2023-03-26T05:44:13;100384.63;;;5.20;100.00
11856;BME280;5987;53.140;8.904;2023-03-26T05:47:17;100389.00;;;5.19;100.00
11856;BME280;5987;53.140;8.904;2023-03-26T05:50:22;100386.22;;;5.25;100.00
11856;BME280;5987;53.140;8.904;2023-03-26T05:53:26;100386.31;;;5.22;100.00
11856;BME280;5987;53.140;8.904;2023-03-26T05:56:30;100391.50;;;5.22;100.00
11856;BME280;5987;53.140;8.904;2023-03-26T05:59:34;100389.50;;;5.35;100.00
11856;BME280;5987;53.140;8.904;2023-03-26T06:02:37;100393.75;;;5.39;100.00
11856;BME280;5987;53.140;8.904;2023-03-26T06:05:44;100392.94;;;5.36;100.00
11856;BME280;5987;53.140;8.904;2023-03-26T06:08:50;100387.66;;;5.40;100.00
11856;BME280;5987;53.140;8.904;2023-03-26T06:12:05;100389.38;;;5.40;100.00
11856;BME280;5987;53.140;8.904;2023-03-26T06:15:10;100397.22;;;5.38;100.00
11856;BME280;5987;53.140;8.904;2023-03-26T06:18:13;100386.03;;;5.35;100.00
11856;BME280;5987;53.140;8.904;2023-03-26T06:21:19;100382.59;;;5.32;100.00
11856;BME280;5987;53.140;8.904;2023-03-26T06:24:22;100382.41;;;5.42;100.00
11856;BME280;5987;53.140;8.904;2023-03-26T06:27:26;100377.19;;;5.42;100.00
11856;BME280;5987;53.140;8.904;2023-03-26T06:30:30;100377.41;;;5.32;100.00
11856;BME280;5987;53.140;8.904;2023-03-26T06:33:33;100380.84;;;5.35;100.00
11856;BME280;5987;53.140;8.904;2023-03-26T06:36:38;100384.41;;;5.30;100.00
11856;BME280;5987;53.140;8.904;2023-03-26T06:39:42;100391.22;;;5.36;100.00
11856;BME280;5987;53.140;8.904;2023-03-26T06:42:45;100392.81;;;5.42;100.00
11856;BME280;5987;53.140;8.904;2023-03-26T06:46:09;100398.06;;;5.40;100.00
11856;BME280;5987;53.140;8.904;2023-03-26T06:49:13;100401.44;;;5.44;100.00
11856;BME280;5987;53.140;8.904;2023-03-26T06:52:18;100396.38;;;5.38;100.00
11856;BME280;5987;53.140;8.904;2023-03-26T06:55:22;100404.81;;;5.49;100.00
11856;BME280;5987;53.140;8.904;2023-03-26T06:58:26;100405.00;;;5.40;100.00
11856;BME280;5987;53.140;8.904;2023-03-26T07:01:30;100400.25;;;5.59;100.00
11856;BME280;5987;53.140;8.904;2023-03-26T07:04:34;100400.28;;;5.57;100.00
11856;BME280;5987;53.140;8.904;2023-03-26T07:07:39;100402.63;;;5.68;100.00
11856;BME280;5987;53.140;8.904;2023-03-26T07:10:47;100408.81;;;5.64;100.00
11856;BME280;5987;53.140;8.904;2023-03-26T07:13:51;100409.78;;;5.60;100.00
11856;BME280;5987;53.140;8.904;2023-03-26T07:16:57;100402.16;;;5.50;100.00
11856;BME280;5987;53.140;8.904;2023-03-26T07:20:02;100403.38;;;5.34;100.00
11856;BME280;5987;53.140;8.904;2023-03-26T07:23:09;100396.22;;;5.44;100.00
11856;BME280;5987;53.140;8.904;2023-03-26T07:26:25;100391.09;;;5.41;100.00
11856;BME280;5987;53.140;8.904;2023-03-26T07:29:38;100388.66;;;5.35;100.00
11856;BME280;5987;53.140;8.904;2023-03-26T07:32:52;100387.88;;;5.29;100.00
11856;BME280;5987;53.140;8.904;2023-03-26T07:36:15;100391.44;;;5.25;100.00
11856;BME280;5987;53.140;8.904;2023-03-26T07:39:38;100386.16;;;5.28;100.00
11856;BME280;5987;53.140;8.904;2023-03-26T07:42:58;100384.16;;;5.40;100.00
11856;BME280;5987;53.140;8.904;2023-03-26T07:46:05;100378.13;;;5.39;100.00
11856;BME280;5987;53.140;8.904;2023-03-26T07:49:13;100384.09;;;5.43;100.00
11856;BME280;5987;53.140;8.904;2023-03-26T07:52:19;100384.31;;;5.33;100.00
11856;BME280;5987;53.140;8.904;2023-03-26T07:55:26;100384.09;;;5.43;100.00
11856;BME280;5987;53.140;8.904;2023-03-26T07:58:48;100385.13;;;5.36;100.00
11856;BME280;5987;53.140;8.904;2023-03-26T08:02:23;100377.03;;;5.48;100.00
11856;BME280;5987;53.140;8.904;2023-03-26T08:05:36;100379.88;;;5.39;100.00
11856;BME280;5987;53.140;8.904;2023-03-26T08:08:52;100386.03;;;5.35;100.00
11856;BME280;5987;53.140;8.904;2023-03-26T08:12:09;100382.72;;;5.28;100.00
11856;BME280;5987;53.140;8.904;2023-03-26T08:15:28;100381.69;;;5.35;100.00
11856;BME280;5987;53.140;8.904;2023-03-26T08:18:44;100381.34;;;5.50;100.00
11856;BME280;5987;53.140;8.904;2023-03-26T08:21:52;100385.03;;;5.40;100.00
11856;BME280;5987;53.140;8.904;2023-03-26T08:25:17;100379.84;;;5.40;100.00
11856;BME280;5987;53.140;8.904;2023-03-26T08:28:38;100374.91;;;5.65;100.00
11856;BME280;5987;53.140;8.904;2023-03-26T08:31:50;100374.31;;;5.53;100.00
11856;BME280;5987;53.140;8.904;2023-03-26T08:34:55;100379.81;;;5.42;100.00
11856;BME280;5987;53.140;8.904;2023-03-26T08:38:01;100384.47;;;5.65;100.00
11856;BME280;5987;53.140;8.904;2023-03-26T08:45:59;100387.88;;;5.69;100.00
11856;BME280;5987;53.140;8.904;2023-03-26T08:49:55;100386.66;;;5.82;100.00
11856;BME280;5987;53.140;8.904;2023-03-26T08:53:43;100393.28;;;5.95;100.00
11856;BME280;5987;53.140;8.904;2023-03-26T08:57:20;100392.63;;;5.87;100.00
11856;BME280;5987;53.140;8.904;2023-03-26T09:01:07;100394.34;;;5.88;100.00
11856;BME280;5987;53.140;8.904;2023-03-26T09:05:04;100399.00;;;5.75;100.00
11856;BME280;5987;53.140;8.904;2023-03-26T09:08:52;100388.44;;;6.16;100.00
11856;BME280;5987;53.140;8.904;2023-03-26T09:20:32;100395.84;;;5.97;100.00
11856;BME280;5987;53.140;8.904;2023-03-26T09:28:12;100391.94;;;6.16;100.00
11856;BME280;5987;53.140;8.904;2023-03-26T09:32:07;100395.72;;;6.03;100.00
11856;BME280;5987;53.140;8.904;2023-03-26T09:35:53;100393.25;;;5.98;100.00
11856;BME280;5987;53.140;8.904;2023-03-26T09:39:16;100392.94;;;6.11;100.00
11856;BME280;5987;53.140;8.904;2023-03-26T09:42:31;100389.44;;;6.45;100.00
11856;BME280;5987;53.140;8.904;2023-03-26T09:46:06;100395.13;;;6.59;100.00
11856;BME280;5987;53.140;8.904;2023-03-26T09:49:32;100401.19;;;6.61;100.00
11856;BME280;5987;53.140;8.904;2023-03-26T09:53:02;100394.28;;;6.90;100.00
11856;BME280;5987;53.140;8.904;2023-03-26T09:56:27;100407.38;;;6.57;100.00
11856;BME280;5987;53.140;8.904;2023-03-26T09:59:51;100403.81;;;6.91;100.00
11856;BME280;5987;53.140;8.904;2023-03-26T10:03:29;100402.84;;;6.64;100.00
11856;BME280;5987;53.140;8.904;2023-03-26T10:06:51;100398.16;;;6.77;100.00
11856;BME280;5987;53.140;8.904;2023-03-26T10:10:10;100406.72;;;6.49;100.00
11856;BME280;5987;53.140;8.904;2023-03-26T10:13:28;100405.97;;;6.44;100.00
11856;BME280;5987;53.140;8.904;2023-03-26T10:16:49;100400.81;;;6.75;100.00
11856;BME280;5987;53.140;8.904;2023-03-26T10:20:25;100411.22;;;6.42;100.00
11856;BME280;5987;53.140;8.904;2023-03-26T10:24:20;100404.97;;;6.49;100.00
11856;BME280;5987;53.140;8.904;2023-03-26T10:27:42;100400.38;;;6.91;100.00
11856;BME280;5987;53.140;8.904;2023-03-26T10:31:25;100390.56;;;6.97;100.00
11856;BME280;5987;53.140;8.904;2023-03-26T10:34:54;100395.34;;;6.83;100.00
11856;BME280;5987;53.140;8.904;2023-03-26T10:38:15;100393.91;;;6.73;100.00
11856;BME280;5987;53.140;8.904;2023-03-26T10:41:31;100393.66;;;7.12;100.00
11856;BME280;5987;53.140;8.904;2023-03-26T10:45:05;100396.59;;;6.69;100.00
11856;BME280;5987;53.140;8.904;2023-03-26T10:48:37;100395.34;;;7.13;100.00
11856;BME280;5987;53.140;8.904;2023-03-26T10:51:51;100396.00;;;6.91;100.00
11856;BME280;5987;53.140;8.904;2023-03-26T10:55:03;100391.28;;;6.73;100.00
11856;BME280;5987;53.140;8.904;2023-03-26T10:58:22;100390.41;;;6.74;100.00
11856;BME280;5987;53.140;8.904;2023-03-26T11:01:40;100390.38;;;6.75;100.00
11856;BME280;5987;53.140;8.904;2023-03-26T11:04:54;100395.31;;;7.14;100.00
11856;BME280;5987;53.140;8.904;2023-03-26T11:08:11;100400.63;;;6.50;100.00
11856;BME280;5987;53.140;8.904;2023-03-26T11:11:28;100395.41;;;6.50;100.00
11856;BME280;5987;53.140;8.904;2023-03-26T11:14:44;100395.91;;;6.63;100.00
11856;BME280;5987;53.140;8.904;2023-03-26T11:18:02;100401.56;;;6.79;100.00
11856;BME280;5987;53.140;8.904;2023-03-26T11:21:17;100404.91;;;7.14;100.00
11856;BME280;5987;53.140;8.904;2023-03-26T11:25:15;100405.47;;;6.64;100.00
11856;BME280;5987;53.140;8.904;2023-03-26T11:28:36;100404.50;;;7.28;100.00
11856;BME280;5987;53.140;8.904;2023-03-26T11:32:10;100400.38;;;7.49;100.00
11856;BME280;5987;53.140;8.904;2023-03-26T11:35:24;100394.69;;;7.06;100.00
11856;BME280;5987;53.140;8.904;2023-03-26T11:38:45;100393.47;;;7.18;100.00
11856;BME280;5987;53.140;8.904;2023-03-26T11:41:58;100396.97;;;7.45;100.00
11856;BME280;5987;53.140;8.904;2023-03-26T11:45:12;100393.38;;;6.91;100.00
11856;BME280;5987;53.140;8.904;2023-03-26T11:48:22;100395.38;;;7.41;100.00
11856;BME280;5987;53.140;8.904;2023-03-26T11:51:32;100393.84;;;7.62;100.00
11856;BME280;5987;53.140;8.904;2023-03-26T11:54:36;100387.53;;;7.69;100.00
11856;BME280;5987;53.140;8.904;2023-03-26T11:57:47;100381.03;;;8.08;100.00
11856;BME280;5987;53.140;8.904;2023-03-26T12:00:54;100383.00;;;7.75;100.00
11856;BME280;5987;53.140;8.904;2023-03-26T12:04:05;100384.69;;;7.49;100.00
11856;BME280;5987;53.140;8.904;2023-03-26T12:07:18;100387.09;;;7.55;100.00
11856;BME280;5987;53.140;8.904;2023-03-26T12:10:31;100384.44;;;7.28;100.00
11856;BME280;5987;53.140;8.904;2023-03-26T12:13:42;100390.06;;;7.44;100.00
11856;BME280;5987;53.140;8.904;2023-03-26T12:17:02;100382.28;;;7.43;100.00
11856;BME280;5987;53.140;8.904;2023-03-26T12:20:32;100392.63;;;7.46;100.00
11856;BME280;5987;53.140;8.904;2023-03-26T12:23:50;100377.34;;;7.33;100.00
11856;BME280;5987;53.140;8.904;2023-03-26T12:26:59;100379.38;;;6.94;100.00
11856;BME280;5987;53.140;8.904;2023-03-26T12:30:11;100379.22;;;7.56;100.00
11856;BME280;5987;53.140;8.904;2023-03-26T12:33:26;100372.75;;;7.95;100.00
11856;BME280;5987;53.140;8.904;2023-03-26T12:36:32;100375.97;;;7.77;100.00
11856;BME280;5987;53.140;8.904;2023-03-26T12:39:40;100372.94;;;7.62;100.00
11856;BME280;5987;53.140;8.904;2023-03-26T12:43:24;100383.09;;;7.71;100.00
11856;BME280;5987;53.140;8.904;2023-03-26T12:47:06;100379.94;;;7.88;100.00
11856;BME280;5987;53.140;8.904;2023-03-26T12:50:49;100378.28;;;7.86;100.00
11856;BME280;5987;53.140;8.904;2023-03-26T12:54:16;100380.28;;;7.78;100.00
11856;BME280;5987;53.140;8.904;2023-03-26T12:57:34;100377.53;;;7.55;100.00
11856;BME280;5987;53.140;8.904;2023-03-26T13:00:52;100370.03;;;7.98;100.00
11856;BME280;5987;53.140;8.904;2023-03-26T13:04:26;100360.91;;;8.35;100.00
11856;BME280;5987;53.140;8.904;2023-03-26T13:07:50;100363.97;;;8.23;100.00
11856;BME280;5987;53.140;8.904;2023-03-26T13:11:07;100369.41;;;8.17;100.00
11856;BME280;5987;53.140;8.904;2023-03-26T13:15:01;100378.63;;;7.48;100.00
11856;BME280;5987;53.140;8.904;2023-03-26T13:18:22;100374.78;;;7.32;100.00
11856;BME280;5987;53.140;8.904;2023-03-26T13:21:42;100365.09;;;7.62;100.00
11856;BME280;5987;53.140;8.904;2023-03-26T13:24:56;100361.19;;;8.02;100.00
11856;BME280;5987;53.140;8.904;2023-03-26T13:28:20;100360.97;;;8.08;100.00
11856;BME280;5987;53.140;8.904;2023-03-26T13:31:37;100366.38;;;8.54;100.00
11856;BME280;5987;53.140;8.904;2023-03-26T13:35:02;100365.19;;;8.38;100.00
11856;BME280;5987;53.140;8.904;2023-03-26T13:38:17;100381.88;;;7.83;100.00
11856;BME280;5987;53.140;8.904;2023-03-26T13:41:38;100372.94;;;7.62;100.00
11856;BME280;5987;53.140;8.904;2023-03-26T13:44:57;100377.66;;;7.51;100.00
11856;BME280;5987;53.140;8.904;2023-03-26T13:48:16;100366.72;;;8.18;100.00
11856;BME280;5987;53.140;8.904;2023-03-26T13:51:27;100375.09;;;8.03;100.00
11856;BME280;5987;53.140;8.904;2023-03-26T13:54:39;100365.88;;;8.18;100.00
11856;BME280;5987;53.140;8.904;2023-03-26T13:57:55;100368.13;;;8.03;100.00
11856;BME280;5987;53.140;8.904;2023-03-26T14:01:06;100373.53;;;7.97;100.00
11856;BME280;5987;53.140;8.904;2023-03-26T14:04:21;100371.41;;;7.83;100.00
11856;BME280;5987;53.140;8.904;2023-03-26T14:07:33;100375.66;;;7.86;100.00
11856;BME280;5987;53.140;8.904;2023-03-26T14:10:47;100357.63;;;8.30;100.00
11856;BME280;5987;53.140;8.904;2023-03-26T14:14:00;100357.69;;;8.54;100.00
11856;BME280;5987;53.140;8.904;2023-03-26T14:17:18;100364.09;;;8.45;100.00
11856;BME280;5987;53.140;8.904;2023-03-26T14:20:47;100366.13;;;8.62;100.00
11856;BME280;5987;53.140;8.904;2023-03-26T14:24:33;100377.16;;;7.93;100.00
11856;BME280;5987;53.140;8.904;2023-03-26T14:28:04;100376.63;;;8.10;100.00
11856;BME280;5987;53.140;8.904;2023-03-26T14:31:22;100383.97;;;7.44;100.00
11856;BME280;5987;53.140;8.904;2023-03-26T14:34:48;100380.53;;;7.70;100.00
11856;BME280;5987;53.140;8.904;2023-03-26T14:38:22;100391.84;;;7.42;100.00
11856;BME280;5987;53.140;8.904;2023-03-26T14:41:46;100389.75;;;7.25;100.00
11856;BME280;5987;53.140;8.904;2023-03-26T14:45:33;100391.28;;;7.32;100.00
11856;BME280;5987;53.140;8.904;2023-03-26T14:49:12;100385.94;;;7.65;100.00
11856;BME280;5987;53.140;8.904;2023-03-26T14:52:30;100394.38;;;7.73;100.00
11856;BME280;5987;53.140;8.904;2023-03-26T14:56:24;100393.34;;;7.78;100.00
11856;BME280;5987;53.140;8.904;2023-03-26T15:00:14;100403.09;;;7.46;100.00
11856;BME280;5987;53.140;8.904;2023-03-26T15:04:33;100391.19;;;7.35;100.00
11856;BME280;5987;53.140;8.904;2023-03-26T15:08:16;100404.06;;;7.97;100.00
11856;BME280;5987;53.140;8.904;2023-03-26T15:11:48;100401.16;;;8.06;100.00
11856;BME280;5987;53.140;8.904;2023-03-26T15:15:38;100406.59;;;7.45;100.00
11856;BME280;5987;53.140;8.904;2023-03-26T15:27:37;100409.09;;;7.19;100.00
11856;BME280;5987;53.140;8.904;2023-03-26T15:31:10;100418.78;;;7.14;100.00
11856;BME280;5987;53.140;8.904;2023-03-26T15:35:07;100417.06;;;6.85;100.00
11856;BME280;5987;53.140;8.904;2023-03-26T15:38:46;100423.13;;;6.85;100.00
11856;BME280;5987;53.140;8.904;2023-03-26T15:42:12;100424.88;;;6.85;100.00
11856;BME280;5987;53.140;8.904;2023-03-26T15:45:34;100423.56;;;7.00;100.00
11856;BME280;5987;53.140;8.904;2023-03-26T15:48:55;100447.50;;;7.46;100.00
11856;BME280;5987;53.140;8.904;2023-03-26T15:52:19;100423.28;;;7.11;100.00
11856;BME280;5987;53.140;8.904;2023-03-26T15:55:32;100442.72;;;6.99;100.00
11856;BME280;5987;53.140;8.904;2023-03-26T15:58:48;100454.03;;;6.99;100.00
11856;BME280;5987;53.140;8.904;2023-03-26T16:02:01;100445.75;;;6.85;100.00
11856;BME280;5987;53.140;8.904;2023-03-26T16:05:33;100454.97;;;6.65;100.00
11856;BME280;5987;53.140;8.904;2023-03-26T16:08:50;100456.03;;;6.58;100.00
11856;BME280;5987;53.140;8.904;2023-03-26T16:12:02;100456.47;;;6.74;100.00
11856;BME280;5987;53.140;8.904;2023-03-26T16:15:30;100454.97;;;6.65;100.00
11856;BME280;5987;53.140;8.904;2023-03-26T16:18:37;100468.06;;;6.64;100.00
11856;BME280;5987;53.140;8.904;2023-03-26T16:21:53;100472.00;;;6.46;100.00
11856;BME280;5987;53.140;8.904;2023-03-26T16:25:23;100482.56;;;6.40;100.00
11856;BME280;5987;53.140;8.904;2023-03-26T16:28:33;100480.63;;;6.48;100.00
11856;BME280;5987;53.140;8.904;2023-03-26T16:32:03;100485.56;;;6.24;100.00
11856;BME280;5987;53.140;8.904;2023-03-26T16:35:39;100479.75;;;6.13;100.00
11856;BME280;5987;53.140;8.904;2023-03-26T16:38:53;100487.78;;;6.05;100.00
11856;BME280;5987;53.140;8.904;2023-03-26T16:42:03;100491.47;;;5.93;100.00
11856;BME280;5987;53.140;8.904;2023-03-26T16:45:21;100495.72;;;6.00;100.00
11856;BME280;5987;53.140;8.904;2023-03-26T16:48:37;100490.91;;;5.80;100.00
11856;BME280;5987;53.140;8.904;2023-03-26T16:52:20;100499.25;;;5.57;100.00
11856;BME280;5987;53.140;8.904;2023-03-26T16:55:36;100519.91;;;5.65;100.00
11856;BME280;5987;53.140;8.904;2023-03-26T16:58:53;100517.53;;;5.54;100.00
11856;BME280;5987;53.140;8.904;2023-03-26T17:02:15;100528.97;;;5.45;100.00
11856;BME280;5987;53.140;8.904;2023-03-26T17:05:32;100528.44;;;5.29;100.00
11856;BME280;5987;53.140;8.904;2023-03-26T17:08:50;100527.44;;;5.37;100.00
11856;BME280;5987;53.140;8.904;2023-03-26T17:12:07;100539.97;;;5.18;100.00
11856;BME280;5987;53.140;8.904;2023-03-26T17:15:29;100541.72;;;5.15;100.00
11856;BME280;5987;53.140;8.904;2023-03-26T17:18:46;100550.53;;;5.08;100.00
11856;BME280;5987;53.140;8.904;2023-03-26T17:21:58;100555.06;;;4.98;100.00
11856;BME280;5987;53.140;8.904;2023-03-26T17:25:21;100555.19;;;4.91;100.00
11856;BME280;5987;53.140;8.904;2023-03-26T17:28:48;100562.31;;;4.81;100.00
11856;BME280;5987;53.140;8.904;2023-03-26T17:32:03;100564.97;;;4.76;100.00
11856;BME280;5987;53.140;8.904;2023-03-26T17:35:10;100574.66;;;4.68;100.00
11856;BME280;5987;53.140;8.904;2023-03-26T17:38:58;100585.28;;;4.54;100.00
11856;BME280;5987;53.140;8.904;2023-03-26T17:42:18;100586.44;;;4.36;100.00